createdAt,value
2017-03-12T00:04:18.919Z,1012.43
2017-03-12T00:09:15.957Z,1012.49
2017-03-12T00:14:13.502Z,1012.37
2017-03-12T00:19:09.508Z,1012.31
2017-03-12T00:24:06.151Z,1012.26
2017-03-12T00:29:02.689Z,1012.22
2017-03-12T00:33:59.430Z,1012.15
2017-03-12T00:38:55.510Z,1012.16
2017-03-12T00:43:52.171Z,1012.14
2017-03-12T00:48:49.151Z,1012.11
2017-03-12T00:53:45.709Z,1012.09
2017-03-12T00:58:42.979Z,1012.05
2017-03-12T01:03:39.390Z,1012.05
2017-03-12T01:08:37.209Z,1012.13
2017-03-12T01:13:33.695Z,1012.06
2017-03-12T01:18:30.167Z,1012.03
2017-03-12T01:23:26.730Z,1012.00
2017-03-12T01:28:23.385Z,1011.80
2017-03-12T01:33:19.931Z,1011.88
2017-03-12T01:38:16.831Z,1011.79
2017-03-12T01:43:13.047Z,1011.78
2017-03-12T01:48:09.886Z,1011.77
2017-03-12T01:53:06.573Z,1011.83
2017-03-12T01:58:04.502Z,1011.65
2017-03-12T02:03:00.704Z,1011.75
2017-03-12T02:07:57.774Z,1011.75
2017-03-12T02:12:54.262Z,1011.67
2017-03-12T02:17:50.956Z,1011.67
2017-03-12T02:22:47.797Z,1011.57
2017-03-12T02:27:44.275Z,1011.56
2017-03-12T02:32:40.753Z,1011.47
2017-03-12T02:37:37.657Z,1011.54
2017-03-12T02:42:34.172Z,1011.55
2017-03-12T02:47:30.583Z,1011.61
2017-03-12T02:52:26.797Z,1011.58
2017-03-12T02:57:23.673Z,1011.60
2017-03-12T03:02:19.877Z,1011.59
2017-03-12T03:07:16.349Z,1011.57
2017-03-12T03:12:13.184Z,1011.53
2017-03-12T03:17:09.636Z,1011.58
2017-03-12T03:22:06.532Z,1011.59
2017-03-12T03:27:03.650Z,1011.60
2017-03-12T03:32:00.447Z,1011.59
2017-03-12T03:36:56.929Z,1011.46
2017-03-12T03:41:54.975Z,1011.45
2017-03-12T03:46:51.914Z,1011.41
2017-03-12T03:51:48.658Z,1011.38
2017-03-12T03:56:45.602Z,1011.38
2017-03-12T04:01:42.205Z,1011.39
2017-03-12T04:06:38.514Z,1011.44
2017-03-12T04:11:35.256Z,1011.48
2017-03-12T04:16:31.776Z,1011.29
2017-03-12T04:21:29.116Z,1011.42
2017-03-12T04:26:25.680Z,1011.41
2017-03-12T04:31:22.390Z,1011.38
2017-03-12T04:36:18.872Z,1011.31
2017-03-12T04:41:15.395Z,1011.23
2017-03-12T04:46:13.017Z,1011.24
2017-03-12T04:51:09.673Z,1011.15
2017-03-12T04:56:06.690Z,1011.09
2017-03-12T05:01:03.604Z,1011.24
2017-03-12T05:06:00.526Z,1011.09
2017-03-12T05:10:57.589Z,1011.14
2017-03-12T05:15:54.164Z,1011.13
2017-03-12T05:20:50.435Z,1011.08
2017-03-12T05:25:47.039Z,1011.13
2017-03-12T05:30:43.640Z,1011.08
2017-03-12T05:35:41.186Z,1010.99
2017-03-12T05:40:37.382Z,1010.97
2017-03-12T05:45:34.168Z,1011.09
2017-03-12T05:50:30.719Z,1011.07
2017-03-12T05:55:27.506Z,1011.04
2017-03-12T06:00:24.329Z,1010.96
2017-03-12T06:05:21.191Z,1011.02
2017-03-12T06:10:19.014Z,1010.93
2017-03-12T06:15:15.597Z,1010.95
2017-03-12T06:20:12.584Z,1011.03
2017-03-12T06:25:10.572Z,1010.93
2017-03-12T06:30:07.483Z,1010.97
2017-03-12T06:35:04.203Z,1010.99
2017-03-12T06:40:01.063Z,1010.98
2017-03-12T06:44:58.866Z,1011.04
2017-03-12T06:55:01.239Z,1010.97
2017-03-12T06:59:57.593Z,1011.01
2017-03-12T07:04:54.658Z,1011.05
2017-03-12T07:09:51.804Z,1011.01
2017-03-12T07:14:48.837Z,1011.07
2017-03-12T07:19:45.748Z,1010.99
2017-03-12T07:24:42.705Z,1011.08
2017-03-12T07:29:39.963Z,1011.18
2017-03-12T07:34:36.924Z,1011.06
2017-03-12T07:39:34.205Z,1011.13
2017-03-12T07:44:31.055Z,1011.08
2017-03-12T07:49:27.464Z,1011.06
2017-03-12T07:54:24.164Z,1011.00
2017-03-12T07:59:21.465Z,1010.99
2017-03-12T08:04:18.322Z,1011.11
2017-03-12T08:09:14.641Z,1010.97
2017-03-12T08:14:11.344Z,1010.97
2017-03-12T08:19:08.456Z,1011.08
2017-03-12T08:24:06.178Z,1010.98
2017-03-12T08:29:02.937Z,1010.91
2017-03-12T08:33:59.594Z,1010.87
2017-03-12T08:38:57.713Z,1010.90
2017-03-12T08:43:54.615Z,1010.79
2017-03-12T08:48:52.314Z,1010.96
2017-03-12T08:53:49.989Z,1010.84
2017-03-12T08:58:47.089Z,1010.79
2017-03-12T09:03:43.903Z,1010.84
2017-03-12T09:08:41.744Z,1010.80
2017-03-12T09:13:40.532Z,1010.76
2017-03-12T09:18:36.928Z,1010.90
2017-03-12T09:23:34.689Z,1010.78
2017-03-12T09:28:31.653Z,1010.72
2017-03-12T09:33:29.319Z,1010.76
2017-03-12T09:38:26.394Z,1010.62
2017-03-12T09:43:23.568Z,1010.65
2017-03-12T09:48:20.703Z,1010.64
2017-03-12T09:53:19.324Z,1010.56
2017-03-12T09:58:17.003Z,1010.57
2017-03-12T10:03:13.667Z,1010.50
2017-03-12T10:08:10.131Z,1010.47
2017-03-12T10:13:06.453Z,1010.45
2017-03-12T10:18:03.302Z,1010.38
2017-03-12T10:23:00.467Z,1010.40
2017-03-12T10:27:57.542Z,1010.36
2017-03-12T10:32:54.467Z,1010.35
2017-03-12T10:37:51.748Z,1010.32
2017-03-12T10:42:50.084Z,1010.33
2017-03-12T10:47:46.946Z,1010.14
2017-03-12T10:52:43.975Z,1010.21
2017-03-12T10:57:42.234Z,1010.22
2017-03-12T11:02:39.333Z,1010.27
2017-03-12T11:07:37.164Z,1010.16
2017-03-12T11:12:34.827Z,1010.24
2017-03-12T11:17:32.989Z,1010.12
2017-03-12T11:22:30.236Z,1010.17
2017-03-12T11:27:27.577Z,1010.13
2017-03-12T11:32:24.776Z,1010.09
2017-03-12T11:37:22.102Z,1010.00
2017-03-12T11:42:19.332Z,1009.85
2017-03-12T11:47:16.313Z,1009.82
2017-03-12T11:52:13.459Z,1009.76
2017-03-12T11:57:10.898Z,1009.76
2017-03-12T12:02:07.124Z,1009.62
2017-03-12T12:07:04.670Z,1009.57
2017-03-12T12:12:01.344Z,1009.51
2017-03-12T12:16:59.765Z,1009.62
2017-03-12T12:21:56.611Z,1009.52
2017-03-12T12:26:53.928Z,1009.53
2017-03-12T12:31:49.762Z,1009.50
2017-03-12T12:36:45.875Z,1009.39
2017-03-12T12:41:43.050Z,1009.34
2017-03-12T12:51:43.586Z,1009.32
2017-03-12T12:56:39.107Z,1009.29
2017-03-12T13:01:36.229Z,1009.32
2017-03-12T13:06:33.022Z,1009.22
2017-03-12T13:11:30.076Z,1009.15
2017-03-12T13:16:27.059Z,1009.23
2017-03-12T13:21:23.570Z,1009.27
2017-03-12T13:26:21.095Z,1009.30
2017-03-12T13:31:18.251Z,1009.26
2017-03-12T13:36:14.969Z,1009.32
2017-03-12T13:41:10.908Z,1009.24
2017-03-12T13:46:06.364Z,1009.20
2017-03-12T13:51:02.199Z,1009.11
2017-03-12T13:55:58.739Z,1009.06
2017-03-12T14:00:55.144Z,1009.10
2017-03-12T14:05:52.251Z,1009.09
2017-03-12T14:10:48.733Z,1009.10
2017-03-12T14:15:44.794Z,1009.00
2017-03-12T14:20:41.729Z,1009.05
2017-03-12T14:25:38.103Z,1009.11
2017-03-12T14:30:34.496Z,1009.07
2017-03-12T14:35:30.956Z,1009.00
2017-03-12T14:45:28.277Z,1008.88
2017-03-12T14:50:24.758Z,1008.84
2017-03-12T14:55:21.317Z,1008.94
2017-03-12T15:00:18.018Z,1008.97
2017-03-12T15:05:14.507Z,1009.02
2017-03-12T15:10:10.819Z,1008.95
2017-03-12T15:15:07.086Z,1009.02
2017-03-12T15:20:04.266Z,1008.97
2017-03-12T15:25:00.382Z,1009.01
2017-03-12T15:29:57.204Z,1009.01
2017-03-12T15:34:53.800Z,1008.99
2017-03-12T15:39:49.877Z,1009.10
2017-03-12T15:44:46.970Z,1009.02
2017-03-12T15:49:43.894Z,1009.19
2017-03-12T15:54:40.306Z,1009.06
2017-03-12T15:59:37.206Z,1009.06
2017-03-12T16:04:34.006Z,1009.13
2017-03-12T16:09:30.507Z,1009.01
2017-03-12T16:14:26.898Z,1009.07
2017-03-12T16:19:22.948Z,1009.06
2017-03-12T16:24:19.434Z,1009.17
2017-03-12T16:29:17.247Z,1009.33
2017-03-12T16:34:13.594Z,1009.32
2017-03-12T16:39:10.132Z,1009.44
2017-03-12T16:44:07.814Z,1009.44
2017-03-12T16:49:05.413Z,1009.47
2017-03-12T16:54:01.748Z,1009.55
2017-03-12T16:58:59.294Z,1009.62
2017-03-12T17:03:55.842Z,1009.61
2017-03-12T17:08:52.459Z,1009.73
2017-03-12T17:13:48.620Z,1009.81
2017-03-12T17:18:45.343Z,1009.90
2017-03-12T17:23:42.865Z,1009.94
2017-03-12T17:28:39.398Z,1010.01
2017-03-12T17:33:36.242Z,1010.07
2017-03-12T17:38:32.571Z,1010.13
2017-03-12T17:43:29.157Z,1010.24
2017-03-12T17:48:25.677Z,1010.12
2017-03-12T17:53:22.599Z,1010.21
2017-03-12T17:58:18.637Z,1010.25
2017-03-12T18:03:15.159Z,1010.22
2017-03-12T18:08:11.659Z,1010.24
2017-03-12T18:13:08.298Z,1010.25
2017-03-12T18:18:05.319Z,1010.28
2017-03-12T18:23:03.357Z,1010.39
2017-03-12T18:27:59.652Z,1010.51
2017-03-12T18:32:55.713Z,1010.63
2017-03-12T18:37:52.400Z,1010.59
2017-03-12T18:42:48.600Z,1010.68
2017-03-12T18:47:44.862Z,1010.77
2017-03-12T18:52:41.447Z,1010.71
2017-03-12T18:57:37.385Z,1010.83
2017-03-12T19:02:34.082Z,1010.95
2017-03-12T19:07:30.539Z,1010.96
2017-03-12T19:12:27.122Z,1011.00
2017-03-12T19:17:23.725Z,1010.96
2017-03-12T19:22:20.178Z,1011.00
2017-03-12T19:27:16.523Z,1011.06
2017-03-12T19:32:13.051Z,1011.20
2017-03-12T19:37:09.850Z,1011.17
2017-03-12T19:42:06.248Z,1011.36
2017-03-12T19:47:02.525Z,1011.44
2017-03-12T19:51:58.824Z,1011.33
2017-03-12T19:56:55.444Z,1011.39
2017-03-12T20:01:52.241Z,1011.52
2017-03-12T20:06:50.261Z,1011.62
2017-03-12T20:11:46.887Z,1011.60
2017-03-12T20:16:43.338Z,1011.56
2017-03-12T20:21:39.802Z,1011.62
2017-03-12T20:26:36.945Z,1011.64
2017-03-12T20:31:33.947Z,1011.60
2017-03-12T20:36:30.608Z,1011.69
2017-03-12T20:41:27.221Z,1011.67
2017-03-12T20:46:23.466Z,1011.73
2017-03-12T20:51:20.269Z,1011.78
2017-03-12T20:56:16.826Z,1011.75
2017-03-12T21:01:13.595Z,1011.83
2017-03-12T21:06:09.995Z,1011.83
2017-03-12T21:11:10.088Z,1011.88
2017-03-12T21:16:06.929Z,1011.98
2017-03-12T21:21:03.324Z,1011.95
2017-03-12T21:25:59.868Z,1011.99
2017-03-12T21:30:58.028Z,1012.06
2017-03-12T21:35:54.110Z,1011.94
2017-03-12T21:40:50.509Z,1012.11
2017-03-12T21:45:47.276Z,1012.27
2017-03-12T21:50:43.327Z,1012.30
2017-03-12T21:55:40.746Z,1012.28
2017-03-12T22:00:36.789Z,1012.24
2017-03-12T22:05:33.391Z,1012.35
2017-03-12T22:10:30.233Z,1012.38
2017-03-12T22:15:26.631Z,1012.33
2017-03-12T22:20:24.340Z,1012.37
2017-03-12T22:25:21.371Z,1012.32
2017-03-12T22:30:17.891Z,1012.49
2017-03-12T22:35:14.512Z,1012.43
2017-03-12T22:40:12.173Z,1012.55
2017-03-12T22:45:08.452Z,1012.55
2017-03-12T22:50:05.473Z,1012.64
2017-03-12T22:55:01.755Z,1012.63
2017-03-12T22:59:58.165Z,1012.70
2017-03-12T23:04:54.875Z,1012.77
2017-03-12T23:09:51.520Z,1012.75
2017-03-12T23:14:48.017Z,1012.76
2017-03-12T23:19:44.851Z,1012.75
2017-03-12T23:24:41.794Z,1012.80
2017-03-12T23:29:38.093Z,1012.80
2017-03-12T23:34:34.717Z,1012.85
2017-03-12T23:39:31.234Z,1012.85
2017-03-12T23:44:28.337Z,1012.91
2017-03-12T23:49:25.365Z,1013.02
2017-03-12T23:54:21.996Z,1013.07
2017-03-12T23:59:18.151Z,1013.13
